Marionville, Missouri
Current Conditions -  °F | °C
As of 5:52 PM on Saturday 25 Oct 2014 (Local Time) from KSGF Reporting Station
Clear Clear  
Wind Chill: 80°   Ceiling: Unl
Heat Index: 81°   Visibility: 10mi
Dew Point: 63°   Wind: 0mph
Humidity: 56%   Direction: NA
Pressure: 30.04"   Gusts: NA
Location:  37°N, 93.64°W
Report Text: KSGF 252252Z 00000KT 10SM CLR 27/17 A3004 RMK AO2 SLP160 T02670172
Loading
Personal Weather Stations






























Interactive Weather Map New forecast layout! Learn more

10-Day Weather Forecast

Advertisements
Track Severe Weather on mobile